Newberry, MI

1:57 PM EDT on May 21, 2018 (GMT -0400)
Luce County

Weather History for KERY - November, 2013

Change the Weather History Date:

Friday, November 1, 2013

  Actual Average Record
Temperature  
Mean Temperature 42 °F -  
Max Temperature 48 °F 49 °F 65 °F (1944)
Min Temperature 36 °F 34 °F 19 °F (1951)
Degree Days  
Heating Degree Days 23    
Moisture  
Dew Point 41 °F    
Average Humidity 94    
Maximum Humidity 100    
Minimum Humidity 86    
Precipitation  
Precipitation 0.26 in - - ()
Sea Level Pressure  
Sea Level Pressure 29.32 in    
Wind  
Wind Speed 8 mph (NW)    
Max Wind Speed 17 mph    
Max Gust Speed 29 mph    
Visibility 8 miles    
Events Rain    
Averages and records for this station are not official NWS values.
T = Trace of Precipitation, MM = Missing Value Source: NWS Daily Summary

Daily Weather History Graph

Daily Weather History Graph

Search for Another Location

Airport or City:

Astronomy

Nov. 01, 2013 Rise Set
Actual Time 8:23 AM EDT 6:26 PM EDT
Civil Twilight 7:51 AM EDT 6:58 PM EDT
Nautical Twilight 7:16 AM EDT 7:33 PM EDT
Astronomical Twilight 6:41 AM EDT 8:08 PM EDT
Moon 6:08 AM EDT (11/1) 5:23 PM EDT (11/1)
Length of Visible Light 11h 06m
Length of Day
10h 03m
Waning Crescent, 4% of the Moon is Illuminated
Nov 1
Waning Crescent
Nov 3
New
Nov 10
First Quarter
Nov 17
Full
Nov 25
Last Quarter

Hourly Weather History & Observations

Time (EDT) Temp. Windchill Dew Point Humidity Pressure Visibility Wind Dir Wind Speed Gust Speed Precip Events Conditions
12:15 AM 48.7 °F - 48.7 °F 100% 29.02 in 10.0 mi NNW 6.9 mph - N/A Rain Rain
12:34 AM 48.6 °F - 48.4 °F 99% 29.03 in 10.0 mi NNW 5.8 mph - N/A   Drizzle
12:55 AM 48.4 °F - 48.2 °F 99% 29.02 in 5.0 mi NNW 8.1 mph - 0.01 in Rain Rain
1:15 AM 47.8 °F - 47.7 °F 99% 29.00 in 1.5 mi NW 5.8 mph - N/A Rain Heavy Rain
1:34 AM 47.7 °F - 47.5 °F 99% 29.00 in 4.0 mi NNW 5.8 mph - 0.01 in   Drizzle
1:55 AM 47.7 °F - 47.5 °F 99% 28.99 in 5.0 mi NNW 6.9 mph - 0.01 in Rain Light Rain
2:15 AM 47.7 °F - 47.5 °F 99% 28.97 in 5.0 mi NNW 5.8 mph - N/A Rain Light Rain
2:35 AM 47.7 °F - 47.5 °F 99% 28.95 in 7.0 mi NNW 5.8 mph - N/A   Drizzle
2:55 AM 47.7 °F - 47.5 °F 99% 28.96 in 10.0 mi NNW 5.8 mph - 0.01 in   Drizzle
3:15 AM 47.7 °F - 47.5 °F 99% 28.96 in 10.0 mi NNW 6.9 mph - N/A   Light Drizzle
3:35 AM 47.5 °F - 47.3 °F 99% 28.96 in 10.0 mi NNW 9.2 mph 18.4 mph N/A Rain Light Rain
3:55 AM 47.3 °F - 46.8 °F 98% 28.97 in 5.0 mi NNW 8.1 mph 18.4 mph 0.02 in Rain Rain
4:15 AM 47.3 °F - 46.6 °F 97% 28.97 in 4.0 mi NW 13.8 mph 18.4 mph 0.02 in Rain Rain
4:35 AM 46.9 °F - 46.4 °F 98% 28.98 in 2.5 mi NW 13.8 mph 26.5 mph 0.07 in   Unknown
4:55 AM 46.6 °F - 45.7 °F 97% 28.99 in 2.5 mi NW 12.7 mph 24.2 mph 0.12 in   Unknown
5:14 AM 46.0 °F 39.6 °F 45.1 °F 97% 29.00 in 4.0 mi NW 15.0 mph 24.2 mph 0.02 in   Overcast
5:35 AM 46.0 °F 39.3 °F 45.0 °F 96% 29.02 in 7.0 mi NW 16.1 mph 28.8 mph 0.03 in   Unknown
5:55 AM 46.0 °F 39.6 °F 45.0 °F 96% 29.04 in 10.0 mi NW 15.0 mph 23.0 mph 0.04 in Rain Light Rain
6:14 AM 46.0 °F 39.6 °F 45.0 °F 96% 29.05 in 10.0 mi NW 15.0 mph 21.9 mph N/A Rain Light Rain
6:35 AM 46.0 °F 39.9 °F 45.0 °F 96% 29.08 in 10.0 mi WNW 13.8 mph 20.7 mph 0.01 in Rain Light Rain
6:55 AM 45.7 °F 38.8 °F 44.6 °F 96% 29.10 in 7.0 mi WNW 16.1 mph 23.0 mph 0.01 in Rain Light Rain
7:15 AM 45.0 °F 37.6 °F 43.7 °F 95% 29.11 in 10.0 mi WNW 17.3 mph 28.8 mph 0.01 in Rain Light Rain
7:35 AM 44.4 °F 39.0 °F 43.2 °F 95% 29.13 in 5.0 mi NW 10.4 mph 20.7 mph 0.01 in   Overcast
7:55 AM 44.1 °F 38.6 °F 43.2 °F 97% 29.15 in 3.0 mi WNW 10.4 mph 19.6 mph 0.01 in Rain Light Rain
8:15 AM 43.9 °F 38.3 °F 43.2 °F 97% 29.17 in 4.0 mi WNW 10.4 mph - N/A   Overcast
8:35 AM 43.7 °F 39.7 °F 42.8 °F 97% 29.19 in 4.0 mi NW 6.9 mph 17.3 mph N/A Rain Light Rain
8:55 AM 43.2 °F 37.9 °F 42.8 °F 99% 29.22 in 2.5 mi WNW 9.2 mph - 0.01 in   Unknown
9:14 AM 42.8 °F 36.2 °F 42.1 °F 97% 29.24 in 1.8 mi WNW 12.7 mph 17.3 mph N/A Rain Rain
9:35 AM 42.1 °F 35.7 °F 41.0 °F 96% 29.27 in 4.0 mi NW 11.5 mph 19.6 mph N/A   Light Drizzle
9:54 AM 41.5 °F 35.0 °F 40.1 °F 95% 29.29 in 10.0 mi NW 11.5 mph 17.3 mph N/A   Overcast
10:15 AM 41.5 °F 35.4 °F 40.1 °F 95% 29.30 in 10.0 mi WNW 10.4 mph 17.3 mph N/A   Overcast
10:35 AM 41.4 °F 35.2 °F 39.9 °F 95% 29.31 in 10.0 mi NW 10.4 mph - N/A   Overcast
10:55 AM 41.5 °F 36.4 °F 39.7 °F 93% 29.32 in 10.0 mi NW 8.1 mph - N/A   Overcast
11:15 AM 41.5 °F 37.1 °F 39.4 °F 92% 29.34 in 10.0 mi NW 6.9 mph - N/A   Overcast
11:34 AM 41.5 °F 37.8 °F 39.4 °F 92% 29.35 in 10.0 mi WNW 5.8 mph - N/A   Overcast
11:55 AM 41.9 °F 37.5 °F 39.6 °F 91% 29.36 in 10.0 mi NW 6.9 mph - N/A   Overcast
12:15 PM 41.9 °F 37.5 °F 39.6 °F 91% 29.38 in 10.0 mi WNW 6.9 mph - N/A   Overcast
12:34 PM 41.5 °F 36.4 °F 39.6 °F 93% 29.39 in 10.0 mi WNW 8.1 mph - N/A Rain Light Rain
12:55 PM 41.4 °F 36.2 °F 39.6 °F 93% 29.40 in 7.0 mi NW 8.1 mph - 0.01 in Rain Rain
1:15 PM 41.4 °F 36.8 °F 40.1 °F 95% 29.41 in 5.0 mi WNW 6.9 mph - N/A Rain Rain
1:34 PM 41.4 °F 36.8 °F 39.7 °F 94% 29.42 in 7.0 mi WNW 6.9 mph - 0.01 in Rain Light Rain
1:55 PM 41.2 °F 36.0 °F 39.6 °F 94% 29.43 in 10.0 mi WNW 8.1 mph - 0.01 in   Overcast
2:15 PM 41.0 °F 38.0 °F 39.4 °F 94% 29.44 in 10.0 mi WNW 4.6 mph - N/A   Overcast
2:35 PM 41.0 °F 35.8 °F 38.8 °F 92% 29.45 in 10.0 mi NW 8.1 mph - N/A   Overcast
2:55 PM 40.6 °F 34.3 °F 38.5 °F 92% 29.46 in 10.0 mi WNW 10.4 mph - N/A   Overcast
3:15 PM 40.5 °F 34.6 °F 37.9 °F 91% 29.47 in 10.0 mi WNW 9.2 mph - N/A   Overcast
3:35 PM 40.5 °F 36.5 °F 37.8 °F 90% 29.48 in 10.0 mi WNW 5.8 mph - N/A   Overcast
3:55 PM 40.5 °F 35.8 °F 37.9 °F 91% 29.49 in 10.0 mi NW 6.9 mph - N/A   Overcast
4:15 PM 40.3 °F 35.5 °F 37.2 °F 89% 29.50 in 10.0 mi NW 6.9 mph - N/A   Overcast
4:34 PM 40.1 °F 34.7 °F 36.9 °F 88% 29.51 in 10.0 mi NW 8.1 mph - N/A   Overcast
4:55 PM 40.1 °F 34.7 °F 36.9 °F 88% 29.51 in 10.0 mi NW 8.1 mph - N/A   Overcast
5:15 PM 40.1 °F 34.7 °F 36.5 °F 87% 29.52 in 10.0 mi NW 8.1 mph - N/A   Overcast
5:34 PM 39.7 °F 35.6 °F 36.5 °F 88% 29.54 in 10.0 mi WNW 5.8 mph - N/A   Overcast
5:55 PM 39.6 °F 36.3 °F 36.5 °F 89% 29.54 in 10.0 mi NW 4.6 mph - N/A   Overcast
6:15 PM 39.6 °F 34.0 °F 36.5 °F 89% 29.55 in 10.0 mi NW 8.1 mph - N/A   Overcast
6:34 PM 39.2 °F 35.9 °F 36.1 °F 89% 29.56 in 10.0 mi NW 4.6 mph - N/A   Overcast
6:55 PM 39.2 °F 37.0 °F 35.2 °F 86% 29.57 in 10.0 mi NNW 3.5 mph - N/A   Overcast
7:15 PM 38.7 °F 34.3 °F 35.4 °F 88% 29.59 in 10.0 mi NW 5.8 mph - N/A   Overcast
7:35 PM 38.3 °F 34.8 °F 35.4 °F 89% 29.60 in 10.0 mi NNW 4.6 mph - N/A   Overcast
7:55 PM 37.6 °F 35.1 °F 35.2 °F 91% 29.61 in 10.0 mi NNW 3.5 mph - N/A   Overcast
8:15 PM 37.8 °F 35.3 °F 35.2 °F 91% 29.62 in 10.0 mi NNW 3.5 mph - N/A   Overcast
8:35 PM 37.8 °F 35.3 °F 35.4 °F 91% 29.63 in 10.0 mi NW 3.5 mph - N/A   Overcast
8:55 PM 37.9 °F - 35.2 °F 90% 29.63 in 10.0 mi Calm Calm - N/A   Overcast
9:15 PM 38.3 °F - 35.2 °F 89% 29.63 in 10.0 mi Calm Calm - N/A   Overcast
9:35 PM 38.3 °F 35.9 °F 35.1 °F 88% 29.64 in 10.0 mi NW 3.5 mph - N/A   Overcast
9:55 PM 38.3 °F 34.8 °F 34.9 °F 87% 29.64 in 10.0 mi NW 4.6 mph - N/A   Overcast
10:14 PM 38.1 °F 35.7 °F 35.1 °F 89% 29.65 in 10.0 mi NW 3.5 mph - N/A   Overcast
10:35 PM 37.6 °F 33.1 °F 35.2 °F 91% 29.65 in 10.0 mi NNW 5.8 mph - N/A   Overcast
10:55 PM 37.4 °F - 35.6 °F 93% 29.66 in 10.0 mi Calm Calm - N/A   Overcast
11:14 PM 37.0 °F 34.5 °F 35.8 °F 95% 29.66 in 10.0 mi North 3.5 mph - N/A   Overcast
11:35 PM 36.9 °F 33.1 °F 35.6 °F 95% 29.67 in 10.0 mi North 4.6 mph - N/A   Overcast
11:55 PM 37.0 °F 31.0 °F 35.1 °F 93% 29.67 in 10.0 mi NNE 8.1 mph - N/A   Overcast